Time,TemperatureF,DewpointF,PressureIn,WindDirection,WindDirectionDegrees,WindSpeedMPH,WindSpeedGustMPH,Humidity,HourlyPrecipIn,Conditions,Clouds,dailyrainin,SoftwareType,DateUTC
2013-09-20 00:13:00,58.0,56.0,-100.00,NNW,340,6.0,20.0,91,0.00,,,-99.99,,2013-09-20 05:13:00,
2013-09-20 00:53:00,56.0,55.0,-100.00,NNW,335,4.0,9.0,95,0.00,,,-99.99,,2013-09-20 05:53:00,
2013-09-20 01:12:00,56.0,55.0,-100.00,NNW,330,5.0,9.0,95,0.00,,,-99.99,,2013-09-20 06:12:00,
2013-09-20 01:52:00,55.0,55.0,-100.00,NW,325,4.0,9.0,98,0.00,,,-99.99,,2013-09-20 06:52:00,
2013-09-20 02:11:00,55.0,55.0,-100.00,NW,325,5.0,9.0,98,0.00,,,-99.99,,2013-09-20 07:11:00,
2013-09-20 02:53:00,55.0,54.0,-100.00,NW,325,6.0,9.0,98,0.00,,,-99.99,,2013-09-20 07:53:00,
2013-09-20 03:22:00,54.0,54.0,-100.00,NW,325,6.0,9.0,98,0.00,,,-99.99,,2013-09-20 08:22:00,
2013-09-20 03:52:00,53.0,53.0,-100.00,NNW,335,4.0,9.0,98,0.00,,,-99.99,,2013-09-20 08:52:00,
2013-09-20 04:12:00,54.0,53.0,-100.00,NNW,330,5.0,9.0,98,0.00,,,-99.99,,2013-09-20 09:12:00,
2013-09-20 04:53:00,52.0,51.0,-100.00,NNW,330,4.0,9.0,96,0.00,,,-99.99,,2013-09-20 09:53:00,
2013-09-20 05:12:00,52.0,51.0,-100.00,North,350,4.0,9.0,96,0.00,,,-99.99,,2013-09-20 10:12:00,
2013-09-20 05:53:00,50.0,48.0,-100.00,NNW,330,6.0,9.0,92,0.00,,,-99.99,,2013-09-20 10:53:00,
2013-09-20 06:12:00,50.0,48.0,-100.00,NNW,340,6.0,9.0,92,0.00,,,-99.99,,2013-09-20 11:12:00,
2013-09-20 06:52:00,51.0,49.0,-100.00,NW,320,6.0,9.0,94,0.00,,,-99.99,,2013-09-20 11:52:00,
2013-09-20 07:12:00,51.0,49.0,-100.00,NW,325,3.0,9.0,94,0.00,,,-99.99,,2013-09-20 12:12:00,
2013-09-20 07:52:00,51.0,50.0,-100.00,NW,320,3.0,9.0,96,0.00,,,-99.99,,2013-09-20 12:52:00,
2013-09-20 08:12:00,51.0,50.0,-100.00,WNW,300,6.0,9.0,96,0.00,,,-99.99,,2013-09-20 13:12:00,
2013-09-20 08:52:00,50.0,49.0,-100.00,NW,320,5.0,9.0,96,0.00,,,-99.99,,2013-09-20 13:52:00,
2013-09-20 09:11:00,50.0,49.0,-100.00,NW,315,4.0,9.0,96,0.00,,,-99.99,,2013-09-20 14:11:00,
2013-09-20 09:52:00,49.0,49.0,-100.00,NW,325,6.0,9.0,98,0.00,,,-99.99,,2013-09-20 14:52:00,
2013-09-20 10:12:00,49.0,49.0,-100.00,NW,310,6.0,9.0,98,0.00,,,-99.99,,2013-09-20 15:12:00,
2013-09-20 10:54:00,49.0,48.0,-100.00,NW,320,6.0,9.0,98,0.00,,,-99.99,,2013-09-20 15:54:00,
2013-09-20 11:13:00,49.0,48.0,-100.00,NNW,330,6.0,9.0,98,0.00,,,-99.99,,2013-09-20 16:13:00,
2013-09-20 11:53:00,48.0,48.0,-100.00,NNW,330,4.0,9.0,98,0.00,,,-99.99,,2013-09-20 16:53:00,
2013-09-20 12:13:00,48.0,48.0,-100.00,NNW,335,6.0,9.0,98,0.00,,,-99.99,,2013-09-20 17:13:00,
2013-09-20 12:53:00,51.0,49.0,-100.00,NW,315,4.0,9.0,93,0.00,,,-99.99,,2013-09-20 17:53:00,
2013-09-20 13:12:00,52.0,47.0,-100.00,NW,315,3.0,9.0,84,0.00,,,-99.99,,2013-09-20 18:12:00,
2013-09-20 13:52:00,54.0,44.0,-100.00,NW,325,5.0,9.0,68,0.00,,,-99.99,,2013-09-20 18:52:00,
2013-09-20 14:11:00,53.0,44.0,-100.00,NNW,330,5.0,19.0,72,0.00,,,-99.99,,2013-09-20 19:11:00,
2013-09-20 14:53:00,54.0,45.0,-100.00,NNW,330,5.0,9.0,70,0.00,,,-99.99,,2013-09-20 19:53:00,
2013-09-20 15:12:00,54.0,43.0,-100.00,NW,325,4.0,9.0,65,0.00,,,-99.99,,2013-09-20 20:12:00,
2013-09-20 15:52:00,54.0,44.0,-100.00,NNW,340,4.0,9.0,67,0.00,,,-99.99,,2013-09-20 20:52:00,
2013-09-20 16:12:00,54.0,44.0,-100.00,NW,315,5.0,9.0,68,0.00,,,-99.99,,2013-09-20 21:12:00,
2013-09-20 16:55:00,54.0,41.0,-100.00,NW,325,7.0,9.0,60,0.00,,,-99.99,,2013-09-20 21:55:00,
2013-09-20 17:14:00,54.0,40.0,-100.00,NW,325,4.0,9.0,59,0.00,,,-99.99,,2013-09-20 22:14:00,
2013-09-20 17:53:00,55.0,38.0,-100.00,NW,305,4.0,9.0,54,0.00,,,-99.99,,2013-09-20 22:53:00,
2013-09-20 18:13:00,56.0,38.0,-100.00,NW,315,4.0,9.0,52,0.00,,,-99.99,,2013-09-20 23:13:00,
2013-09-20 18:53:00,55.0,37.0,-100.00,NNW,335,7.0,9.0,50,0.00,,,-99.99,,2013-09-20 23:53:00,
2013-09-20 19:11:00,55.0,37.0,-100.00,NNW,330,6.0,9.0,50,0.00,,,-99.99,,2013-09-21 00:11:00,
2013-09-20 19:52:00,52.0,38.0,-100.00,NNW,330,6.0,9.0,58,0.00,,,-99.99,,2013-09-21 00:52:00,
2013-09-20 20:52:00,52.0,42.0,-100.00,NW,325,3.0,6.0,66,0.00,,,-99.99,,2013-09-21 01:52:00,
2013-09-20 21:12:00,52.0,42.0,-100.00,North,350,2.0,7.0,68,0.00,,,-99.99,,2013-09-21 02:12:00,
2013-09-20 21:52:00,49.0,42.0,-100.00,NW,315,1.0,2.0,76,0.00,,,-99.99,,2013-09-21 02:52:00,
2013-09-20 22:12:00,49.0,43.0,-100.00,NNW,330,1.0,4.0,79,0.00,,,-99.99,,2013-09-21 03:12:00,
2013-09-20 22:55:00,47.0,44.0,-100.00,NNW,345,0.0,1.0,87,0.00,,,-99.99,,2013-09-21 03:55:00,
2013-09-20 23:14:00,44.0,41.0,-100.00,NNW,330,0.0,1.0,89,0.00,,,-99.99,,2013-09-21 04:14:00,
2013-09-20 23:54:00,42.0,40.0,-100.00,NNW,340,1.0,2.0,92,0.00,,,-99.99,,2013-09-21 04:54:00,